createdAt,value
2023-05-07T00:02:47.635Z,18.82
2023-05-07T00:07:49.099Z,18.72
2023-05-07T00:12:50.594Z,18.68
2023-05-07T00:17:51.981Z,18.67
2023-05-07T00:22:53.422Z,18.73
2023-05-07T00:27:54.799Z,18.73
2023-05-07T00:32:56.459Z,18.71
2023-05-07T00:37:58.265Z,18.68
2023-05-07T00:43:00.755Z,18.66
2023-05-07T00:48:03.598Z,18.66
2023-05-07T00:53:05.171Z,18.67
2023-05-07T00:58:07.133Z,18.69
2023-05-07T01:03:08.514Z,18.69
2023-05-07T01:08:11.503Z,18.65
2023-05-07T01:13:14.204Z,18.63
2023-05-07T01:18:16.201Z,18.65
2023-05-07T01:23:18.860Z,18.67
2023-05-07T01:28:20.390Z,18.62
2023-05-07T01:33:23.336Z,18.42
2023-05-07T01:38:25.005Z,18.36
2023-05-07T01:43:26.451Z,18.35
2023-05-07T01:48:28.320Z,18.35
2023-05-07T01:53:29.719Z,18.33
2023-05-07T01:58:31.081Z,18.36
2023-05-07T02:03:32.494Z,18.39
2023-05-07T02:08:33.931Z,18.37
2023-05-07T02:13:35.731Z,18.40
2023-05-07T02:18:37.122Z,18.36
2023-05-07T02:23:38.526Z,18.31
2023-05-07T02:28:39.918Z,18.32
2023-05-07T02:33:41.332Z,18.33
2023-05-07T02:38:42.719Z,18.30
2023-05-07T02:43:44.048Z,18.30
2023-05-07T02:48:45.398Z,18.25
2023-05-07T02:53:46.939Z,18.21
2023-05-07T02:58:48.335Z,18.18
2023-05-07T03:03:49.757Z,18.11
2023-05-07T03:08:51.157Z,18.13
2023-05-07T03:13:52.526Z,18.13
2023-05-07T03:18:53.907Z,18.13
2023-05-07T03:23:55.446Z,18.14
2023-05-07T03:28:56.770Z,18.09
2023-05-07T03:33:58.709Z,18.09
2023-05-07T03:39:00.146Z,18.07
2023-05-07T03:44:01.504Z,18.08
2023-05-07T03:49:02.830Z,18.06
2023-05-07T03:54:04.206Z,18.08
2023-05-07T03:59:07.701Z,18.02
2023-05-07T04:04:09.106Z,18.02
2023-05-07T04:09:10.517Z,17.96
2023-05-07T04:14:11.884Z,17.86
2023-05-07T04:19:13.234Z,17.84
2023-05-07T04:24:14.965Z,17.88
2023-05-07T04:29:16.318Z,17.86
2023-05-07T04:34:17.695Z,17.76
2023-05-07T04:39:19.063Z,17.64
2023-05-07T04:44:20.627Z,17.75
2023-05-07T04:49:21.997Z,17.83
2023-05-07T04:54:23.430Z,17.93
2023-05-07T04:59:24.866Z,17.97
2023-05-07T05:04:26.648Z,17.97
2023-05-07T05:09:27.986Z,17.91
2023-05-07T05:14:30.458Z,17.98
2023-05-07T05:19:31.796Z,18.06
2023-05-07T05:24:33.159Z,18.13
2023-05-07T05:29:34.465Z,18.25
2023-05-07T05:34:35.942Z,18.29
2023-05-07T05:39:37.451Z,18.41
2023-05-07T05:44:38.853Z,18.54
2023-05-07T05:49:40.276Z,18.64
2023-05-07T05:54:41.630Z,18.78
2023-05-07T05:59:45.139Z,18.90
2023-05-07T06:04:46.597Z,19.00
2023-05-07T06:09:48.085Z,19.10
2023-05-07T06:14:49.531Z,19.20
2023-05-07T06:19:50.867Z,19.27
2023-05-07T06:24:52.248Z,19.29
2023-05-07T06:29:53.628Z,19.39
2023-05-07T06:34:55.035Z,19.44
2023-05-07T06:39:57.573Z,19.51
2023-05-07T06:45:00.711Z,19.56
2023-05-07T06:50:02.154Z,19.62
2023-05-07T06:55:03.678Z,19.62
2023-05-07T07:00:08.052Z,19.64
2023-05-07T07:05:09.985Z,19.65
2023-05-07T07:10:11.510Z,19.85
2023-05-07T07:15:14.567Z,20.10
2023-05-07T07:20:16.154Z,20.39
2023-05-07T07:25:17.970Z,20.60
2023-05-07T07:30:19.369Z,20.90
2023-05-07T07:35:20.749Z,21.08
2023-05-07T07:40:22.315Z,21.32
2023-05-07T07:45:24.108Z,21.43
2023-05-07T07:50:40.451Z,21.70
2023-05-07T07:55:45.864Z,21.85
2023-05-07T08:00:48.162Z,21.91
2023-05-07T08:05:51.985Z,22.16
2023-05-07T08:10:53.395Z,22.20
2023-05-07T08:15:54.765Z,22.35
2023-05-07T08:20:56.186Z,22.73
2023-05-07T08:25:57.550Z,23.11
2023-05-07T08:31:01.508Z,23.42
2023-05-07T08:36:03.034Z,23.55
2023-05-07T08:41:04.446Z,23.67
2023-05-07T08:46:08.727Z,23.73
2023-05-07T08:51:16.877Z,23.91
2023-05-07T08:56:20.342Z,24.12
2023-05-07T09:01:23.049Z,24.37
2023-05-07T09:06:24.470Z,24.58
2023-05-07T09:11:25.962Z,24.77
2023-05-07T09:16:31.179Z,24.85
2023-05-07T09:21:32.656Z,25.05
2023-05-07T09:26:35.596Z,25.26
2023-05-07T09:31:40.305Z,25.50
2023-05-07T09:36:41.726Z,25.69
2023-05-07T09:41:47.359Z,25.78
2023-05-07T09:46:54.839Z,25.85
2023-05-07T09:51:57.552Z,25.77
2023-05-07T09:56:59.549Z,25.77
2023-05-07T10:02:04.697Z,25.96
2023-05-07T10:07:06.777Z,26.12
2023-05-07T10:12:08.425Z,26.31
2023-05-07T10:17:12.788Z,26.43
2023-05-07T10:22:17.137Z,26.67
2023-05-07T10:27:19.369Z,27.30
2023-05-07T10:32:30.575Z,27.65
2023-05-07T10:37:32.420Z,28.04
2023-05-07T10:42:33.868Z,28.28
2023-05-07T10:47:35.229Z,28.47
2023-05-07T10:52:36.878Z,28.73
2023-05-07T10:57:38.331Z,28.85
2023-05-07T11:03:01.557Z,28.84
2023-05-07T11:08:04.832Z,28.80
2023-05-07T11:13:06.505Z,29.13
2023-05-07T11:18:08.086Z,29.40
2023-05-07T11:23:09.547Z,29.39
2023-05-07T11:28:11.454Z,29.60
2023-05-07T11:33:13.062Z,29.62
2023-05-07T11:38:14.794Z,29.57
2023-05-07T11:43:16.142Z,29.72
2023-05-07T11:48:17.989Z,31.16
2023-05-07T11:53:20.963Z,33.70
2023-05-07T11:58:23.922Z,34.27
2023-05-07T12:03:25.344Z,33.68
2023-05-07T12:08:26.845Z,33.18
2023-05-07T12:13:28.289Z,32.68
2023-05-07T12:18:30.132Z,32.00
2023-05-07T12:23:31.799Z,31.74
2023-05-07T12:28:39.108Z,31.88
2023-05-07T12:33:40.942Z,31.97
2023-05-07T12:38:42.295Z,32.06
2023-05-07T12:43:46.972Z,31.99
2023-05-07T12:48:49.206Z,32.13
2023-05-07T12:53:50.914Z,32.38
2023-05-07T12:58:52.324Z,32.74
2023-05-07T13:03:53.810Z,32.88
2023-05-07T13:08:55.316Z,32.82
2023-05-07T13:13:56.649Z,32.77
2023-05-07T13:18:58.014Z,32.46
2023-05-07T13:23:59.685Z,32.53
2023-05-07T13:29:01.354Z,32.15
2023-05-07T13:34:02.757Z,31.77
2023-05-07T13:39:04.526Z,31.52
2023-05-07T13:44:06.122Z,31.59
2023-05-07T13:49:07.499Z,31.65
2023-05-07T13:54:08.952Z,31.75
2023-05-07T13:59:10.619Z,32.51
2023-05-07T14:04:12.126Z,33.66
2023-05-07T14:09:14.288Z,32.95
2023-05-07T14:14:15.845Z,32.59
2023-05-07T14:19:17.266Z,32.66
2023-05-07T14:24:27.420Z,32.53
2023-05-07T14:29:37.136Z,32.03
2023-05-07T14:34:38.526Z,31.85
2023-05-07T14:39:40.068Z,31.70
2023-05-07T14:44:42.426Z,31.63
2023-05-07T14:49:43.745Z,31.18
2023-05-07T14:54:45.336Z,30.75
2023-05-07T14:59:47.969Z,30.79
2023-05-07T15:04:49.511Z,31.20
2023-05-07T15:09:51.954Z,31.26
2023-05-07T15:14:53.284Z,31.38
2023-05-07T15:19:54.712Z,31.59
2023-05-07T15:24:57.645Z,31.28
2023-05-07T15:29:59.027Z,30.81
2023-05-07T15:35:00.362Z,30.34
2023-05-07T15:40:03.381Z,29.93
2023-05-07T15:45:06.278Z,29.63
2023-05-07T15:50:08.239Z,29.22
2023-05-07T15:55:09.987Z,29.00
2023-05-07T16:00:12.504Z,28.75
2023-05-07T16:05:14.588Z,28.60
2023-05-07T16:10:16.202Z,28.34
2023-05-07T16:15:17.699Z,28.13
2023-05-07T16:20:19.939Z,27.92
2023-05-07T16:25:21.337Z,27.72
2023-05-07T16:30:22.758Z,27.52
2023-05-07T16:35:24.189Z,27.42
2023-05-07T16:40:25.628Z,27.30
2023-05-07T16:45:27.142Z,27.15
2023-05-07T16:50:28.835Z,27.03
2023-05-07T16:55:36.186Z,26.94
2023-05-07T17:00:50.231Z,26.75
2023-05-07T17:05:52.709Z,26.62
2023-05-07T17:10:54.314Z,26.43
2023-05-07T17:15:55.684Z,26.27
2023-05-07T17:20:57.111Z,26.16
2023-05-07T17:25:58.538Z,25.89
2023-05-07T17:31:00.054Z,24.52
2023-05-07T17:36:03.066Z,23.69
2023-05-07T17:41:04.441Z,22.94
2023-05-07T17:46:05.829Z,22.32
2023-05-07T17:51:07.227Z,21.64
2023-05-07T17:56:08.620Z,21.44
2023-05-07T18:01:09.976Z,21.14
2023-05-07T18:06:11.428Z,21.11
2023-05-07T18:11:12.902Z,20.87
2023-05-07T18:16:14.967Z,20.80
2023-05-07T18:21:18.769Z,20.77
2023-05-07T18:26:21.320Z,20.65
2023-05-07T18:31:22.787Z,20.68
2023-05-07T18:36:25.008Z,20.67
2023-05-07T18:41:26.480Z,20.52
2023-05-07T18:46:29.464Z,20.31
2023-05-07T18:51:30.932Z,20.12
2023-05-07T18:56:32.318Z,20.04
2023-05-07T19:01:33.681Z,19.77
2023-05-07T19:06:35.159Z,19.62
2023-05-07T19:11:36.552Z,19.55
2023-05-07T19:16:38.078Z,19.45
2023-05-07T19:21:39.490Z,19.42
2023-05-07T19:26:41.077Z,19.42
2023-05-07T19:31:42.429Z,19.39
2023-05-07T19:36:43.846Z,19.38
2023-05-07T19:41:45.192Z,19.41
2023-05-07T19:46:47.687Z,19.43
2023-05-07T19:51:49.069Z,19.31
2023-05-07T19:56:50.474Z,19.32
2023-05-07T20:01:51.926Z,19.28
2023-05-07T20:06:53.555Z,19.42
2023-05-07T20:11:55.260Z,19.57
2023-05-07T20:16:56.600Z,19.70
2023-05-07T20:21:58.044Z,19.89
2023-05-07T20:26:59.382Z,19.84
2023-05-07T20:32:01.076Z,19.92
2023-05-07T20:37:02.857Z,19.81
2023-05-07T20:42:04.273Z,19.75
2023-05-07T20:47:05.633Z,19.69
2023-05-07T20:52:07.181Z,19.66
2023-05-07T20:57:08.511Z,19.67
2023-05-07T21:02:09.880Z,19.64
2023-05-07T21:07:12.337Z,19.68
2023-05-07T21:12:13.664Z,19.69
2023-05-07T21:17:15.038Z,19.71
2023-05-07T21:22:16.392Z,19.72
2023-05-07T21:27:17.790Z,19.63
2023-05-07T21:32:19.200Z,19.55
2023-05-07T21:37:20.628Z,19.46
2023-05-07T21:42:23.336Z,19.36
2023-05-07T21:47:24.988Z,19.24
2023-05-07T21:52:26.491Z,19.10
2023-05-07T21:57:27.866Z,18.98
2023-05-07T22:02:29.313Z,18.84
2023-05-07T22:07:31.654Z,18.60
2023-05-07T22:12:33.161Z,18.48
2023-05-07T22:17:34.531Z,18.36
2023-05-07T22:22:51.949Z,18.38
2023-05-07T22:27:53.953Z,18.36
2023-05-07T22:32:55.572Z,18.39
2023-05-07T22:37:58.280Z,18.49
2023-05-07T22:42:59.610Z,18.47
2023-05-07T22:48:01.046Z,18.47
2023-05-07T22:53:02.410Z,18.60
2023-05-07T22:58:03.800Z,18.63
2023-05-07T23:03:05.273Z,18.57
2023-05-07T23:08:06.645Z,18.56
2023-05-07T23:13:13.292Z,18.53
2023-05-07T23:18:14.805Z,18.48
2023-05-07T23:23:16.247Z,18.35
2023-05-07T23:28:17.586Z,18.23
2023-05-07T23:33:19.411Z,18.12
2023-05-07T23:38:21.178Z,18.02
2023-05-07T23:43:23.265Z,17.90
2023-05-07T23:48:24.599Z,17.84
2023-05-07T23:53:26.134Z,17.86
2023-05-07T23:58:27.706Z,17.70
